createdAt,value
2022-10-14T00:07:27.239Z,4.17
2022-10-14T00:17:31.563Z,3.97
2022-10-14T00:27:34.408Z,3.70
2022-10-14T00:37:41.714Z,3.27
2022-10-14T00:47:45.923Z,3.33
2022-10-14T00:57:50.210Z,3.60
2022-10-14T01:08:04.577Z,2.63
2022-10-14T01:18:21.246Z,2.00
2022-10-14T01:28:30.832Z,1.60
2022-10-14T01:38:38.810Z,1.70
2022-10-14T01:48:48.464Z,1.40
2022-10-14T01:58:54.174Z,1.40
2022-10-14T02:09:08.586Z,1.20
2022-10-14T02:19:24.988Z,1.30
2022-10-14T02:29:30.863Z,0.97
2022-10-14T02:39:39.412Z,1.00
2022-10-14T02:59:46.743Z,1.10
2022-10-14T03:09:49.581Z,1.00
2022-10-14T03:19:54.827Z,1.13
2022-10-14T03:29:57.860Z,1.27
2022-10-14T03:40:03.067Z,1.27
2022-10-14T03:50:08.812Z,1.30
2022-10-14T04:00:19.539Z,1.40
2022-10-14T04:10:30.002Z,1.43
2022-10-14T04:20:36.052Z,1.60
2022-10-14T04:30:41.950Z,1.20
2022-10-14T04:40:52.641Z,1.13
2022-10-14T04:50:56.596Z,1.40
2022-10-14T05:01:22.912Z,1.20
2022-10-14T05:11:27.008Z,2.13
2022-10-14T05:21:34.168Z,1.67
2022-10-14T05:31:44.737Z,2.07
2022-10-14T05:42:10.769Z,2.03
2022-10-14T05:52:14.791Z,3.23
2022-10-14T06:02:21.057Z,3.80
2022-10-14T06:12:24.402Z,3.93
2022-10-14T06:22:30.966Z,4.33
2022-10-14T06:32:33.861Z,4.53
2022-10-14T06:42:38.383Z,4.53
2022-10-14T06:52:41.289Z,4.40
2022-10-14T07:02:45.599Z,5.20
2022-10-14T07:12:48.503Z,6.10
2022-10-14T07:22:56.249Z,6.20
2022-10-14T07:33:00.513Z,6.93
2022-10-14T07:43:04.857Z,6.17
2022-10-14T07:53:07.982Z,5.87
2022-10-14T08:03:12.249Z,5.63
2022-10-14T08:13:15.166Z,5.17
2022-10-14T08:23:20.025Z,4.70
2022-10-14T08:33:23.132Z,4.23
2022-10-14T08:43:33.755Z,4.03
2022-10-14T08:53:39.624Z,4.93
2022-10-14T09:03:44.057Z,4.77
2022-10-14T09:13:50.972Z,4.70
2022-10-14T09:24:01.747Z,5.57
2022-10-14T09:34:04.829Z,5.57
2022-10-14T09:44:18.594Z,6.00
2022-10-14T09:54:25.302Z,5.80
2022-10-14T10:04:36.039Z,6.23
2022-10-14T10:14:39.082Z,7.60
2022-10-14T10:24:43.415Z,7.37
2022-10-14T10:35:05.151Z,8.40
2022-10-14T10:45:16.465Z,7.73
2022-10-14T10:55:35.677Z,8.47
2022-10-14T11:05:56.709Z,8.60
2022-10-14T11:16:06.922Z,10.07
2022-10-14T11:26:21.937Z,9.33
2022-10-14T11:36:33.560Z,9.30
2022-10-14T11:46:45.414Z,8.43
2022-10-14T11:56:56.692Z,7.93
2022-10-14T12:07:10.188Z,8.17
2022-10-14T12:17:22.379Z,8.67
2022-10-14T12:27:30.827Z,8.50
2022-10-14T12:37:54.296Z,8.03
2022-10-14T12:48:14.050Z,7.97
2022-10-14T12:58:26.596Z,6.87
2022-10-14T13:08:30.864Z,7.60
2022-10-14T13:18:36.859Z,5.87
2022-10-14T13:28:49.829Z,6.10
2022-10-14T13:38:57.373Z,4.83
2022-10-14T13:49:04.212Z,2.60
2022-10-14T13:59:39.268Z,1.43
2022-10-14T14:09:50.165Z,0.77
2022-10-14T14:19:53.833Z,0.50
2022-10-14T14:29:58.791Z,0.40
2022-10-14T14:40:03.341Z,0.50
2022-10-14T14:50:31.238Z,0.60
2022-10-14T15:00:34.824Z,0.50
2022-10-14T15:10:49.015Z,2.13
2022-10-14T15:20:52.540Z,0.80
2022-10-14T15:31:02.951Z,0.60
2022-10-14T15:41:11.205Z,0.60
2022-10-14T15:51:17.293Z,0.80
2022-10-14T16:01:22.431Z,1.20
2022-10-14T16:11:28.242Z,1.20
2022-10-14T16:21:31.394Z,1.30
2022-10-14T16:31:35.680Z,1.70
2022-10-14T16:41:38.813Z,1.17
2022-10-14T16:51:44.940Z,1.27
2022-10-14T17:01:48.890Z,1.27
2022-10-14T17:11:56.179Z,1.50
2022-10-14T17:21:59.778Z,1.40
2022-10-14T17:32:04.253Z,1.50
2022-10-14T17:42:07.202Z,1.30
2022-10-14T17:52:11.578Z,1.97
2022-10-14T18:02:18.331Z,1.90
2022-10-14T18:12:22.878Z,1.80
2022-10-14T18:22:25.964Z,3.10
2022-10-14T18:32:30.376Z,1.70
2022-10-14T18:42:36.201Z,1.20
2022-10-14T18:52:56.215Z,1.10
2022-10-14T19:02:59.535Z,5.00
2022-10-14T19:13:04.282Z,3.37
2022-10-14T19:23:10.214Z,1.03
2022-10-14T19:33:14.752Z,0.97
2022-10-14T19:43:17.653Z,1.07
2022-10-14T19:53:22.128Z,1.10
2022-10-14T20:03:25.528Z,1.20
2022-10-14T20:13:29.786Z,0.80
2022-10-14T20:23:35.229Z,1.27
2022-10-14T20:33:39.928Z,0.87
2022-10-14T20:43:43.971Z,0.70
2022-10-14T20:53:48.590Z,0.90
2022-10-14T21:03:51.585Z,1.57
2022-10-14T21:13:58.060Z,0.70
2022-10-14T21:24:03.727Z,0.93
2022-10-14T21:34:08.794Z,1.30
2022-10-14T21:44:15.998Z,1.00
2022-10-14T21:54:21.892Z,1.70
2022-10-14T22:04:26.888Z,1.50
2022-10-14T22:14:31.194Z,1.57
2022-10-14T22:24:34.400Z,2.03
2022-10-14T22:34:38.718Z,1.83
2022-10-14T22:44:41.731Z,1.90
2022-10-14T22:54:46.060Z,2.37
2022-10-14T23:04:49.125Z,2.27
2022-10-14T23:14:53.519Z,3.03
2022-10-14T23:24:56.511Z,3.33
2022-10-14T23:35:00.743Z,3.93
2022-10-14T23:45:04.606Z,3.10
2022-10-14T23:55:09.828Z,3.30
